Time;durP1;ratioP1;P1;durP2;ratioP2;P2;SDS_P1;SDS_P2;PMS_P1;PMS_P2;Temp;Humidity;BMP_temperature;BMP_pressure;BME280_temperature;BME280_humidity;BME280_pressure;Samples;Min_cycle;Max_cycle;Signal;HPM_P1;HPM_P2
2022/06/11 00:01:11;;;;;;;2.35;1.80;;;;;;;;;;5036256;28;20870;-84
2022/06/11 00:03:37;;;;;;;2.45;1.70;;;;;;;;;;5033944;28;20382;-85
2022/06/11 00:06:04;;;;;;;2.27;1.80;;;;;;;;;;5024513;28;20797;-85
2022/06/11 00:08:30;;;;;;;2.30;1.63;;;;;;;;;;5035299;28;20982;-84
2022/06/11 00:10:56;;;;;;;3.33;1.98;;;;;;;;;;5016248;28;20384;-82
2022/06/11 00:13:22;;;;;;;1.98;1.70;;;;;;;;;;5016752;28;20850;-83
2022/06/11 00:15:52;;;;;;;2.35;1.65;;;;;;;;;;5016762;28;20824;-84
2022/06/11 00:18:19;;;;;;;2.60;1.83;;;;;;;;;;5026651;28;20393;-84
2022/06/11 00:20:45;;;;;;;2.47;1.80;;;;;;;;;;5045809;28;20391;-83
2022/06/11 00:23:11;;;;;;;2.45;1.73;;;;;;;;;;5053440;28;20459;-82
2022/06/11 00:25:37;;;;;;;2.90;2.10;;;;;;;;;;5054498;28;20858;-84
2022/06/11 00:28:04;;;;;;;3.10;2.40;;;;;;;;;;5054462;28;20427;-84
2022/06/11 00:30:30;;;;;;;2.65;2.40;;;;;;;;;;5055057;28;20450;-84
2022/06/11 00:32:56;;;;;;;4.53;2.30;;;;;;;;;;5054681;28;20486;-83
2022/06/11 00:35:23;;;;;;;3.00;2.20;;;;;;;;;;5052402;28;20413;-84
2022/06/11 00:37:49;;;;;;;2.05;1.95;;;;;;;;;;5042354;28;20466;-84
2022/06/11 00:40:17;;;;;;;2.40;1.87;;;;;;;;;;5040256;28;20385;-84
2022/06/11 00:42:43;;;;;;;3.15;2.00;;;;;;;;;;5053389;28;20385;-84
2022/06/11 00:45:15;;;;;;;2.40;2.20;;;;;;;;;;5054722;28;20420;-84
2022/06/11 00:47:42;;;;;;;2.60;2.25;;;;;;;;;;5054167;28;20392;-83
2022/06/11 00:50:24;;;;;;;3.42;2.38;;;;;;;;;;5048919;28;20919;-84
2022/06/11 00:52:51;;;;;;;2.58;2.22;;;;;;;;;;5033818;28;20383;-83
2022/06/11 00:55:23;;;;;;;2.70;2.25;;;;;;;;;;5047253;28;20799;-84
2022/06/11 00:57:49;;;;;;;2.45;2.05;;;;;;;;;;5053789;28;20956;-84
2022/06/11 01:00:21;;;;;;;2.67;1.92;;;;;;;;;;5053830;28;20378;-84
2022/06/11 01:02:47;;;;;;;3.00;2.23;;;;;;;;;;5036756;28;20373;-84
2022/06/11 01:05:22;;;;;;;2.42;2.20;;;;;;;;;;5053737;28;20392;-84
2022/06/11 01:08:09;;;;;;;2.42;2.22;;;;;;;;;;5053583;28;20389;-85
2022/06/11 01:10:45;;;;;;;3.13;2.17;;;;;;;;;;5053687;28;20871;-84
2022/06/11 01:13:33;;;;;;;3.92;2.28;;;;;;;;;;5053593;28;20472;-84
2022/06/11 01:16:05;;;;;;;3.45;2.35;;;;;;;;;;5053627;28;20381;-84
2022/06/11 01:18:46;;;;;;;2.78;2.33;;;;;;;;;;5053550;28;20412;-84
2022/06/11 01:21:15;;;;;;;2.60;2.40;;;;;;;;;;5036217;28;20380;-82
2022/06/11 01:23:54;;;;;;;2.70;2.28;;;;;;;;;;5032828;28;20435;-83
2022/06/11 01:26:25;;;;;;;2.90;2.60;;;;;;;;;;5036576;28;20495;-83
2022/06/11 01:29:01;;;;;;;2.70;2.43;;;;;;;;;;5052223;28;20570;-83
2022/06/11 01:31:29;;;;;;;3.05;2.60;;;;;;;;;;5053074;28;20400;-83
2022/06/11 01:34:04;;;;;;;2.80;2.50;;;;;;;;;;5053222;28;20389;-83
2022/06/11 01:36:33;;;;;;;2.88;2.47;;;;;;;;;;5044613;28;20417;-83
2022/06/11 01:39:05;;;;;;;2.65;2.35;;;;;;;;;;5053442;28;20416;-83
2022/06/11 01:41:55;;;;;;;2.97;2.40;;;;;;;;;;5052880;28;20382;-83
2022/06/11 01:44:23;;;;;;;2.90;2.55;;;;;;;;;;5052864;28;20786;-83
2022/06/11 01:46:51;;;;;;;3.05;2.50;;;;;;;;;;5052858;28;20484;-82
2022/06/11 01:49:26;;;;;;;2.60;2.28;;;;;;;;;;5052727;28;20417;-83
2022/06/11 01:51:59;;;;;;;2.80;2.50;;;;;;;;;;5046910;28;20847;-83
2022/06/11 01:54:34;;;;;;;2.50;2.25;;;;;;;;;;5052708;28;20404;-83
2022/06/11 01:57:14;;;;;;;2.90;2.33;;;;;;;;;;5053193;28;20428;-84
2022/06/11 01:59:52;;;;;;;2.42;2.22;;;;;;;;;;5053313;28;20894;-82
2022/06/11 02:02:18;;;;;;;3.38;2.65;;;;;;;;;;5050553;28;20378;-83
2022/06/11 02:04:59;;;;;;;2.73;2.53;;;;;;;;;;5040376;28;20392;-82
2022/06/11 02:07:25;;;;;;;2.78;2.30;;;;;;;;;;5053082;28;20531;-83
2022/06/11 02:10:13;;;;;;;3.20;2.60;;;;;;;;;;5052267;28;20477;-83
2022/06/11 02:12:41;;;;;;;3.08;2.60;;;;;;;;;;5033199;28;20408;-83
2022/06/11 02:15:12;;;;;;;2.60;2.38;;;;;;;;;;5029236;28;20404;-83
2022/06/11 02:17:40;;;;;;;2.63;2.33;;;;;;;;;;5042088;28;20384;-83
2022/06/11 02:20:09;;;;;;;3.58;2.50;;;;;;;;;;5033474;28;20867;-83
2022/06/11 02:22:35;;;;;;;2.97;2.45;;;;;;;;;;5044963;28;20814;-83
2022/06/11 02:25:22;;;;;;;3.65;2.47;;;;;;;;;;5052148;28;20459;-83
2022/06/11 02:27:49;;;;;;;3.42;2.53;;;;;;;;;;5051470;28;20389;-83
2022/06/11 02:30:17;;;;;;;3.50;2.58;;;;;;;;;;5052325;28;20382;-83
2022/06/11 02:32:44;;;;;;;2.72;2.53;;;;;;;;;;5052343;28;20412;-83
2022/06/11 02:35:11;;;;;;;2.50;2.30;;;;;;;;;;5051942;28;20517;-82
2022/06/11 02:37:42;;;;;;;3.20;2.55;;;;;;;;;;5039899;28;20405;-83
2022/06/11 02:40:11;;;;;;;2.60;2.17;;;;;;;;;;5053348;28;20476;-83
2022/06/11 02:42:37;;;;;;;3.65;2.50;;;;;;;;;;5056489;28;20396;-82
2022/06/11 02:45:03;;;;;;;2.83;2.55;;;;;;;;;;5055303;28;20427;-83
2022/06/11 02:47:29;;;;;;;2.67;2.47;;;;;;;;;;5056427;28;20428;-83
2022/06/11 02:49:55;;;;;;;3.20;2.30;;;;;;;;;;5054266;28;20378;-83
2022/06/11 02:52:23;;;;;;;2.65;2.45;;;;;;;;;;5053801;28;20383;-82
2022/06/11 02:54:49;;;;;;;2.78;2.47;;;;;;;;;;5042682;28;20387;-82
2022/06/11 02:57:17;;;;;;;3.60;2.40;;;;;;;;;;5036670;28;20844;-83
2022/06/11 02:59:44;;;;;;;2.40;2.10;;;;;;;;;;5056449;28;20436;-82
2022/06/11 03:02:11;;;;;;;3.00;2.20;;;;;;;;;;5031233;28;20385;-82
2022/06/11 03:04:37;;;;;;;2.42;2.22;;;;;;;;;;5055874;28;20393;-82
2022/06/11 03:07:03;;;;;;;4.80;2.28;;;;;;;;;;5056072;28;20381;-82
2022/06/11 03:09:31;;;;;;;2.60;2.40;;;;;;;;;;5055865;28;20412;-83
2022/06/11 03:11:57;;;;;;;2.67;2.47;;;;;;;;;;5055800;28;20386;-82
2022/06/11 03:14:23;;;;;;;2.60;2.40;;;;;;;;;;5055824;28;20862;-83
2022/06/11 03:16:50;;;;;;;2.60;2.40;;;;;;;;;;5055908;28;20451;-82
2022/06/11 03:19:20;;;;;;;2.60;2.40;;;;;;;;;;5055731;28;20922;-82
2022/06/11 03:21:46;;;;;;;2.53;2.28;;;;;;;;;;5046357;28;20460;-83
2022/06/11 03:24:12;;;;;;;2.90;2.50;;;;;;;;;;5049116;28;20875;-82
2022/06/11 03:26:38;;;;;;;2.60;2.40;;;;;;;;;;5041452;28;20389;-82
2022/06/11 03:29:05;;;;;;;2.80;2.40;;;;;;;;;;5049585;28;20383;-82
2022/06/11 03:31:31;;;;;;;3.10;2.47;;;;;;;;;;5035649;28;20379;-83
2022/06/11 03:33:57;;;;;;;3.20;2.55;;;;;;;;;;5045560;28;20385;-82
2022/06/11 03:36:23;;;;;;;2.80;2.50;;;;;;;;;;5046783;28;20383;-81
2022/06/11 03:38:49;;;;;;;3.22;2.50;;;;;;;;;;5055218;28;20801;-82
2022/06/11 03:41:17;;;;;;;2.58;2.38;;;;;;;;;;5055548;28;20924;-83
2022/06/11 03:43:43;;;;;;;3.47;2.37;;;;;;;;;;5055492;28;20378;-84
2022/06/11 03:46:09;;;;;;;2.17;1.98;;;;;;;;;;5055366;28;20377;-84
2022/06/11 03:48:36;;;;;;;2.60;2.13;;;;;;;;;;5055394;28;20388;-84
2022/06/11 03:51:03;;;;;;;2.80;2.50;;;;;;;;;;5050027;28;20464;-84
2022/06/11 03:53:30;;;;;;;3.00;1.95;;;;;;;;;;5053158;28;20866;-83
2022/06/11 03:55:56;;;;;;;3.10;2.30;;;;;;;;;;5055166;28;20412;-84
2022/06/11 03:58:23;;;;;;;2.70;2.03;;;;;;;;;;5055134;28;20428;-84
2022/06/11 04:03:34;;;;;;;2.33;2.13;;;;;;;;;;5055284;28;20381;-84
2022/06/11 04:06:01;;;;;;;2.40;2.20;;;;;;;;;;5054966;28;20468;-84
2022/06/11 04:08:28;;;;;;;2.30;2.10;;;;;;;;;;5054673;28;20381;-84
2022/06/11 04:10:56;;;;;;;2.70;2.10;;;;;;;;;;5054905;28;20382;-84
2022/06/11 04:13:23;;;;;;;3.00;2.42;;;;;;;;;;5050675;28;20397;-83
2022/06/11 04:15:50;;;;;;;3.45;2.20;;;;;;;;;;5019732;28;20455;-84
2022/06/11 04:18:29;;;;;;;3.13;2.20;;;;;;;;;;5049595;28;20409;-84
2022/06/11 04:20:55;;;;;;;3.85;2.50;;;;;;;;;;5035109;28;20382;-83
2022/06/11 04:23:24;;;;;;;5.77;2.40;;;;;;;;;;5054326;28;20545;-83
2022/06/11 04:25:50;;;;;;;3.70;2.28;;;;;;;;;;5055194;28;20382;-84
2022/06/11 04:28:16;;;;;;;2.30;2.10;;;;;;;;;;5054168;28;20374;-84
2022/06/11 04:30:42;;;;;;;2.95;2.40;;;;;;;;;;5043546;28;20377;-84
2022/06/11 04:33:08;;;;;;;2.70;2.00;;;;;;;;;;5052946;28;20886;-83
2022/06/11 04:35:35;;;;;;;2.38;2.20;;;;;;;;;;5050751;28;20398;-83
2022/06/11 04:38:01;;;;;;;2.77;2.33;;;;;;;;;;5048144;28;20855;-84
2022/06/11 04:40:27;;;;;;;2.42;2.22;;;;;;;;;;5054119;28;20369;-84
2022/06/11 04:42:53;;;;;;;3.10;2.20;;;;;;;;;;5054347;28;20385;-84
2022/06/11 04:45:20;;;;;;;3.03;2.40;;;;;;;;;;5054096;28;20382;-83
2022/06/11 04:47:47;;;;;;;2.40;2.13;;;;;;;;;;5054145;28;20392;-84
2022/06/11 04:50:15;;;;;;;3.20;2.30;;;;;;;;;;5040851;28;20479;-84
2022/06/11 04:52:41;;;;;;;2.78;2.10;;;;;;;;;;5026585;28;20377;-84
2022/06/11 04:55:08;;;;;;;3.60;2.10;;;;;;;;;;5054043;28;20385;-83
2022/06/11 04:57:34;;;;;;;2.42;2.22;;;;;;;;;;5053911;28;20370;-84
2022/06/11 05:00:00;;;;;;;3.78;2.30;;;;;;;;;;5045975;28;20441;-84
2022/06/11 05:02:26;;;;;;;2.30;2.08;;;;;;;;;;5029945;28;20395;-85
2022/06/11 05:04:52;;;;;;;2.72;1.98;;;;;;;;;;5035200;28;20387;-85
2022/06/11 05:07:19;;;;;;;3.00;2.17;;;;;;;;;;5048392;28;20377;-84
2022/06/11 05:09:45;;;;;;;2.80;2.20;;;;;;;;;;5044890;28;20511;-84
2022/06/11 05:12:12;;;;;;;3.85;2.30;;;;;;;;;;5047107;28;20416;-83
2022/06/11 05:14:38;;;;;;;3.50;1.90;;;;;;;;;;5031064;28;20428;-83
2022/06/11 05:17:04;;;;;;;2.15;1.95;;;;;;;;;;5043336;28;20924;-83
2022/06/11 05:19:30;;;;;;;3.30;1.90;;;;;;;;;;5036509;28;20405;-83
2022/06/11 05:21:56;;;;;;;2.60;2.40;;;;;;;;;;5053981;28;20409;-83
2022/06/11 05:24:23;;;;;;;2.67;2.28;;;;;;;;;;5053535;28;20386;-84
2022/06/11 05:26:54;;;;;;;3.47;2.00;;;;;;;;;;5053966;28;20390;-83
2022/06/11 05:29:48;;;;;;;2.50;2.13;;;;;;;;;;5040214;28;20379;-85
2022/06/11 05:32:14;;;;;;;3.83;2.80;;;;;;;;;;5031608;28;20393;-83
2022/06/11 05:34:41;;;;;;;3.80;3.50;;;;;;;;;;5052191;28;20378;-84
2022/06/11 05:37:07;;;;;;;2.80;2.60;;;;;;;;;;5044785;28;20473;-84
2022/06/11 05:39:33;;;;;;;3.83;3.25;;;;;;;;;;5053256;28;20409;-84
2022/06/11 05:41:59;;;;;;;3.05;2.75;;;;;;;;;;5053924;28;20379;-85
2022/06/11 05:44:25;;;;;;;3.28;2.65;;;;;;;;;;5053407;28;20385;-84
2022/06/11 05:46:52;;;;;;;3.00;2.70;;;;;;;;;;5052930;28;20416;-84
2022/06/11 05:49:20;;;;;;;2.97;2.75;;;;;;;;;;5053079;28;20417;-84
2022/06/11 05:51:47;;;;;;;2.92;2.60;;;;;;;;;;5053560;28;20393;-83
2022/06/11 05:54:15;;;;;;;2.42;2.22;;;;;;;;;;5053157;28;20384;-84
2022/06/11 05:56:42;;;;;;;3.25;2.55;;;;;;;;;;5053439;28;20438;-84
2022/06/11 05:59:11;;;;;;;3.25;2.55;;;;;;;;;;5048505;28;20411;-84
2022/06/11 06:01:39;;;;;;;4.03;3.20;;;;;;;;;;5026658;28;20395;-84
2022/06/11 06:04:06;;;;;;;3.72;2.60;;;;;;;;;;5031272;28;20483;-85
2022/06/11 06:06:32;;;;;;;4.37;2.63;;;;;;;;;;5038180;28;20825;-83
2022/06/11 06:08:58;;;;;;;4.55;2.95;;;;;;;;;;5033234;28;20379;-83
2022/06/11 06:11:25;;;;;;;3.78;2.95;;;;;;;;;;5045235;28;20383;-83
2022/06/11 06:13:52;;;;;;;6.35;5.13;;;;;;;;;;5043462;28;20396;-83
2022/06/11 06:16:19;;;;;;;7.85;5.55;;;;;;;;;;5050447;28;20377;-83
2022/06/11 06:18:46;;;;;;;4.70;3.17;;;;;;;;;;5049211;28;20956;-83
2022/06/11 06:21:12;;;;;;;4.40;3.20;;;;;;;;;;5048350;28;20749;-84
2022/06/11 06:23:39;;;;;;;5.05;3.17;;;;;;;;;;5047695;28;20374;-83
2022/06/11 06:26:05;;;;;;;2.95;2.65;;;;;;;;;;5044598;28;20391;-84
2022/06/11 06:28:34;;;;;;;3.25;2.58;;;;;;;;;;5038442;28;20464;-83
2022/06/11 06:31:01;;;;;;;2.80;2.45;;;;;;;;;;5052487;28;20381;-84
2022/06/11 06:33:30;;;;;;;5.50;2.80;;;;;;;;;;5052672;28;20381;-85
2022/06/11 06:35:56;;;;;;;3.95;3.22;;;;;;;;;;5027462;28;20940;-85
2022/06/11 06:38:22;;;;;;;4.45;3.50;;;;;;;;;;5036984;28;20500;-84
2022/06/11 06:40:48;;;;;;;5.25;3.60;;;;;;;;;;5051243;28;20916;-84
2022/06/11 06:43:14;;;;;;;4.45;3.22;;;;;;;;;;5052881;28;20390;-85
2022/06/11 06:45:40;;;;;;;6.85;4.47;;;;;;;;;;5042452;28;20385;-85
2022/06/11 06:48:06;;;;;;;6.35;3.88;;;;;;;;;;5043168;28;20379;-85
2022/06/11 06:50:32;;;;;;;6.82;4.60;;;;;;;;;;5047676;28;20879;-85
2022/06/11 06:52:58;;;;;;;8.13;4.88;;;;;;;;;;5042026;28;20395;-84
2022/06/11 06:55:24;;;;;;;8.63;4.80;;;;;;;;;;5034164;28;20428;-86
2022/06/11 06:57:50;;;;;;;8.52;5.15;;;;;;;;;;5054704;28;20408;-88
2022/06/11 07:00:17;;;;;;;9.93;4.83;;;;;;;;;;5051753;28;20894;-86
2022/06/11 07:02:43;;;;;;;8.27;5.37;;;;;;;;;;5026548;28;20397;-85
2022/06/11 07:05:10;;;;;;;9.40;5.65;;;;;;;;;;5040202;28;20383;-85
2022/06/11 07:07:36;;;;;;;7.95;5.13;;;;;;;;;;5043177;28;20381;-85
2022/06/11 07:10:03;;;;;;;8.73;5.57;;;;;;;;;;5052683;28;20389;-85
2022/06/11 07:12:31;;;;;;;7.25;4.93;;;;;;;;;;5042072;28;21468;-85
2022/06/11 07:14:58;;;;;;;8.27;4.47;;;;;;;;;;5039322;28;20382;-86
2022/06/11 07:17:25;;;;;;;8.30;4.83;;;;;;;;;;5051625;28;20399;-85
2022/06/11 07:20:12;;;;;;;7.17;4.90;;;;;;;;;;5052334;28;20409;-85
2022/06/11 07:22:41;;;;;;;7.32;5.55;;;;;;;;;;5053843;28;20405;-85
2022/06/11 07:25:08;;;;;;;9.70;6.45;;;;;;;;;;5040860;28;20880;-85
2022/06/11 07:27:35;;;;;;;9.35;6.53;;;;;;;;;;5040881;28;20383;-85
2022/06/11 07:30:08;;;;;;;14.68;8.15;;;;;;;;;;5041793;28;20855;-86
2022/06/11 07:32:35;;;;;;;10.13;7.20;;;;;;;;;;5057352;28;20847;-85
2022/06/11 07:35:06;;;;;;;7.95;6.20;;;;;;;;;;5055949;28;20413;-85
2022/06/11 07:37:32;;;;;;;8.57;5.88;;;;;;;;;;5048756;28;20419;-85
2022/06/11 07:39:59;;;;;;;9.13;6.50;;;;;;;;;;5056054;28;20452;-85
2022/06/11 07:42:25;;;;;;;8.55;6.90;;;;;;;;;;5056531;28;20381;-85
2022/06/11 07:44:51;;;;;;;12.05;7.80;;;;;;;;;;5055833;28;20508;-85
2022/06/11 07:47:53;;;;;;;13.65;8.60;;;;;;;;;;5056650;28;20384;-85
2022/06/11 07:50:04;;;;;;;10.97;6.80;;;;;;;;;;5055813;28;20388;-85
2022/06/11 07:52:30;;;;;;;11.23;6.80;;;;;;;;;;5056128;28;20456;-86
2022/06/11 07:54:56;;;;;;;8.25;5.78;;;;;;;;;;5050617;28;20408;-85
2022/06/11 07:57:22;;;;;;;9.00;5.88;;;;;;;;;;5056379;28;20409;-86
2022/06/11 07:59:48;;;;;;;7.70;5.27;;;;;;;;;;5047640;28;20416;-85
2022/06/11 08:02:14;;;;;;;6.57;4.78;;;;;;;;;;5034880;28;20375;-85
2022/06/11 08:04:40;;;;;;;8.43;4.88;;;;;;;;;;5054935;28;20382;-84
2022/06/11 08:07:06;;;;;;;6.32;4.70;;;;;;;;;;5055091;28;20370;-85
2022/06/11 08:09:32;;;;;;;9.43;6.70;;;;;;;;;;5053402;28;20385;-84
2022/06/11 08:11:58;;;;;;;10.05;6.97;;;;;;;;;;5054784;28;20442;-84
2022/06/11 08:14:24;;;;;;;9.33;7.13;;;;;;;;;;5054616;28;20876;-85
2022/06/11 08:16:50;;;;;;;10.05;6.45;;;;;;;;;;5054864;28;20385;-85
2022/06/11 08:19:16;;;;;;;9.20;6.35;;;;;;;;;;5054548;28;20790;-85
2022/06/11 08:21:42;;;;;;;9.88;6.30;;;;;;;;;;5054535;28;20389;-84
2022/06/11 08:24:08;;;;;;;8.23;5.35;;;;;;;;;;5044862;28;20880;-84
2022/06/11 08:26:35;;;;;;;8.38;5.43;;;;;;;;;;5045812;28;20375;-85
2022/06/11 08:29:01;;;;;;;7.30;5.30;;;;;;;;;;5045721;28;20382;-84
2022/06/11 08:31:27;;;;;;;11.52;7.43;;;;;;;;;;5055233;28;20507;-86
2022/06/11 08:33:53;;;;;;;7.68;5.70;;;;;;;;;;5047367;28;20415;-84
2022/06/11 08:36:19;;;;;;;7.57;5.10;;;;;;;;;;5041407;28;20434;-85
2022/06/11 08:38:45;;;;;;;8.20;5.27;;;;;;;;;;5053805;28;20417;-83
2022/06/11 08:41:37;;;;;;;7.15;5.47;;;;;;;;;;5054594;28;20373;-86
2022/06/11 08:44:08;;;;;;;7.95;5.97;;;;;;;;;;5023797;28;20391;-85
2022/06/11 08:46:36;;;;;;;8.10;5.80;;;;;;;;;;5016514;28;20396;-85
2022/06/11 08:49:05;;;;;;;8.60;5.55;;;;;;;;;;5024662;28;20910;-85
2022/06/11 08:51:38;;;;;;;6.82;4.90;;;;;;;;;;5054855;28;20378;-84
2022/06/11 08:54:10;;;;;;;10.90;5.82;;;;;;;;;;5024760;28;20388;-86
2022/06/11 08:56:41;;;;;;;7.05;5.20;;;;;;;;;;5025353;28;20482;-87
2022/06/11 08:59:26;;;;;;;7.83;4.97;;;;;;;;;;5019388;28;20484;-86
2022/06/11 09:02:00;;;;;;;8.03;4.87;;;;;;;;;;5017481;28;20484;-87
2022/06/11 09:04:38;;;;;;;7.63;4.63;;;;;;;;;;5018868;28;20431;-88
2022/06/11 09:07:11;;;;;;;7.72;4.70;;;;;;;;;;5027630;28;20475;-86
2022/06/11 09:09:41;;;;;;;7.20;4.80;;;;;;;;;;5015152;28;20447;-85
2022/06/11 09:12:26;;;;;;;7.25;4.40;;;;;;;;;;5034334;28;20752;-84
2022/06/11 09:14:58;;;;;;;6.15;4.40;;;;;;;;;;5027192;28;20377;-81
2022/06/11 09:17:45;;;;;;;6.13;4.17;;;;;;;;;;5053443;28;20390;-82
2022/06/11 09:20:21;;;;;;;5.28;3.60;;;;;;;;;;5052605;28;20443;-82
2022/06/11 09:22:57;;;;;;;4.93;2.70;;;;;;;;;;5034984;28;20719;-83
2022/06/11 09:25:26;;;;;;;4.45;2.65;;;;;;;;;;5053311;28;20382;-82
2022/06/11 09:28:09;;;;;;;6.65;3.10;;;;;;;;;;5051173;28;21173;-81
2022/06/11 09:30:38;;;;;;;4.22;2.20;;;;;;;;;;5053257;28;20423;-83
2022/06/11 09:33:07;;;;;;;3.43;2.10;;;;;;;;;;5053355;28;20385;-81
2022/06/11 09:35:39;;;;;;;2.40;1.83;;;;;;;;;;5049156;28;20402;-81
2022/06/11 09:38:21;;;;;;;3.65;1.73;;;;;;;;;;5048960;28;20412;-81
2022/06/11 09:40:50;;;;;;;2.28;1.80;;;;;;;;;;5053107;28;20460;-82
2022/06/11 09:43:34;;;;;;;2.63;1.70;;;;;;;;;;5049422;28;20478;-82
2022/06/11 09:46:07;;;;;;;3.08;2.00;;;;;;;;;;5035349;28;20440;-81
2022/06/11 09:48:52;;;;;;;2.30;1.80;;;;;;;;;;5052895;28;20374;-81
2022/06/11 09:51:24;;;;;;;4.13;2.10;;;;;;;;;;5052862;28;20747;-81
2022/06/11 09:54:05;;;;;;;3.05;1.80;;;;;;;;;;5044189;28;20396;-81
2022/06/11 09:56:45;;;;;;;2.35;1.70;;;;;;;;;;5017092;28;20420;-81
2022/06/11 09:59:29;;;;;;;2.38;1.70;;;;;;;;;;5047961;28;20408;-81
2022/06/11 10:01:55;;;;;;;1.83;1.40;;;;;;;;;;5040927;28;20459;-80
2022/06/11 10:04:27;;;;;;;2.33;1.77;;;;;;;;;;5042332;28;20493;-79
2022/06/11 10:06:59;;;;;;;4.22;1.55;;;;;;;;;;5019041;28;21440;-80
2022/06/11 10:09:28;;;;;;;2.38;1.48;;;;;;;;;;5025968;28;20399;-79
2022/06/11 10:12:00;;;;;;;1.83;1.30;;;;;;;;;;5027544;28;20897;-79
2022/06/11 10:14:29;;;;;;;1.83;1.20;;;;;;;;;;5021272;28;20391;-78
2022/06/11 10:16:58;;;;;;;1.90;1.20;;;;;;;;;;5021509;28;20377;-79
2022/06/11 10:19:38;;;;;;;1.35;0.90;;;;;;;;;;5031626;28;20468;-79
2022/06/11 10:22:17;;;;;;;1.97;1.17;;;;;;;;;;5016464;28;20377;-79
2022/06/11 10:24:49;;;;;;;1.48;0.70;;;;;;;;;;5020023;28;20454;-78
2022/06/11 10:27:15;;;;;;;1.50;0.70;;;;;;;;;;5032468;28;20915;-79
2022/06/11 10:29:46;;;;;;;1.33;0.85;;;;;;;;;;5031846;28;20434;-80
2022/06/11 10:32:18;;;;;;;2.03;0.68;;;;;;;;;;5041281;28;20431;-79
2022/06/11 10:34:59;;;;;;;1.40;0.70;;;;;;;;;;5052156;28;20389;-80
2022/06/11 10:37:25;;;;;;;1.23;0.52;;;;;;;;;;5031822;28;20419;-79
2022/06/11 10:40:07;;;;;;;1.38;0.60;;;;;;;;;;5034791;28;20442;-79
2022/06/11 10:42:45;;;;;;;0.82;0.55;;;;;;;;;;5040255;28;20418;-79
2022/06/11 10:45:15;;;;;;;1.40;0.68;;;;;;;;;;5023490;28;20404;-79
2022/06/11 10:47:52;;;;;;;0.90;0.50;;;;;;;;;;5019828;28;20393;-79
2022/06/11 10:50:22;;;;;;;0.98;0.50;;;;;;;;;;5049022;28;20460;-80
2022/06/11 10:52:58;;;;;;;0.77;0.50;;;;;;;;;;5052422;28;20385;-80
2022/06/11 10:55:33;;;;;;;0.52;0.50;;;;;;;;;;5052296;28;20381;-80
2022/06/11 10:58:02;;;;;;;1.58;0.70;;;;;;;;;;5052100;28;20397;-80
2022/06/11 11:00:31;;;;;;;1.25;0.60;;;;;;;;;;5052354;28;20373;-80
2022/06/11 11:02:58;;;;;;;1.42;0.68;;;;;;;;;;5041445;28;20379;-80
2022/06/11 11:05:25;;;;;;;1.30;0.60;;;;;;;;;;5049018;28;20460;-80
2022/06/11 11:08:02;;;;;;;1.27;0.70;;;;;;;;;;5055536;28;20389;-81
2022/06/11 11:10:37;;;;;;;1.40;0.60;;;;;;;;;;5054846;28;20414;-80
2022/06/11 11:13:12;;;;;;;1.10;0.60;;;;;;;;;;5037310;28;20387;-81
2022/06/11 11:15:44;;;;;;;1.23;0.80;;;;;;;;;;5049599;28;20377;-81
2022/06/11 11:18:12;;;;;;;0.77;0.60;;;;;;;;;;5055806;28;20417;-80
2022/06/11 11:20:42;;;;;;;2.40;0.80;;;;;;;;;;5055689;28;20382;-80
2022/06/11 11:23:11;;;;;;;1.08;0.60;;;;;;;;;;5047573;28;20385;-80
2022/06/11 11:25:39;;;;;;;2.55;0.60;;;;;;;;;;5048491;28;20383;-81
2022/06/11 11:28:06;;;;;;;1.10;0.73;;;;;;;;;;5037660;28;20384;-81
2022/06/11 11:30:38;;;;;;;0.75;0.55;;;;;;;;;;5054725;28;20386;-80
2022/06/11 11:33:21;;;;;;;1.35;0.60;;;;;;;;;;5055236;28;20374;-81
2022/06/11 11:35:47;;;;;;;1.50;0.52;;;;;;;;;;5048934;28;20387;-80
2022/06/11 11:38:13;;;;;;;0.95;0.50;;;;;;;;;;5052243;28;20413;-80
2022/06/11 11:40:59;;;;;;;1.25;0.70;;;;;;;;;;5038576;28;20382;-80
2022/06/11 11:43:32;;;;;;;2.30;0.70;;;;;;;;;;5052949;28;20385;-77
2022/06/11 11:46:07;;;;;;;0.80;0.50;;;;;;;;;;5055140;28;20862;-79
2022/06/11 11:48:43;;;;;;;0.70;0.60;;;;;;;;;;5054999;28;20380;-79
2022/06/11 11:51:14;;;;;;;1.48;0.60;;;;;;;;;;5055285;28;20468;-79
2022/06/11 11:53:45;;;;;;;1.00;0.55;;;;;;;;;;5055126;28;20381;-79
2022/06/11 11:56:30;;;;;;;1.85;0.60;;;;;;;;;;5055220;28;20381;-79
2022/06/11 11:58:59;;;;;;;0.80;0.60;;;;;;;;;;5054678;28;20409;-79
2022/06/11 12:01:27;;;;;;;1.60;0.70;;;;;;;;;;5054829;28;20456;-80
2022/06/11 12:04:02;;;;;;;1.27;0.70;;;;;;;;;;5054728;28;20378;-80
2022/06/11 12:06:44;;;;;;;1.83;0.70;;;;;;;;;;5054758;28;20370;-81
2022/06/11 12:09:22;;;;;;;1.60;0.70;;;;;;;;;;5054610;28;20802;-81
2022/06/11 12:12:05;;;;;;;0.90;0.60;;;;;;;;;;5041750;28;20387;-81
2022/06/11 12:14:33;;;;;;;1.00;0.60;;;;;;;;;;5030769;28;20385;-81
2022/06/11 12:17:03;;;;;;;1.50;0.60;;;;;;;;;;5034916;28;20393;-81
2022/06/11 12:19:33;;;;;;;0.90;0.70;;;;;;;;;;5040145;28;20439;-83
2022/06/11 12:22:04;;;;;;;1.45;0.70;;;;;;;;;;5051069;28;20383;-82
2022/06/11 12:24:33;;;;;;;1.17;0.65;;;;;;;;;;5035544;28;20742;-82
2022/06/11 12:27:04;;;;;;;0.80;0.70;;;;;;;;;;5033954;28;20380;-79
2022/06/11 12:29:42;;;;;;;2.33;0.65;;;;;;;;;;5054413;28;20874;-80
2022/06/11 12:32:17;;;;;;;1.13;1.00;;;;;;;;;;5041021;28;20449;-80
2022/06/11 12:34:43;;;;;;;1.00;0.80;;;;;;;;;;5024634;28;20920;-82
2022/06/11 12:37:25;;;;;;;0.80;0.60;;;;;;;;;;5044503;28;20385;-80
2022/06/11 12:39:54;;;;;;;1.15;0.60;;;;;;;;;;5028631;28;20419;-82
2022/06/11 12:42:26;;;;;;;1.20;0.88;;;;;;;;;;5032754;28;20401;-81
2022/06/11 12:44:56;;;;;;;1.95;1.00;;;;;;;;;;5036665;28;20466;-83
2022/06/11 12:47:28;;;;;;;1.70;0.73;;;;;;;;;;5054166;28;20369;-83
2022/06/11 12:50:06;;;;;;;0.98;0.60;;;;;;;;;;5054029;28;20416;-83
2022/06/11 12:52:37;;;;;;;1.98;0.70;;;;;;;;;;5053958;28;20436;-79
2022/06/11 12:55:06;;;;;;;0.88;0.50;;;;;;;;;;5047334;28;20377;-80
2022/06/11 12:57:44;;;;;;;1.00;0.60;;;;;;;;;;5053773;28;20386;-81
2022/06/11 13:00:16;;;;;;;0.88;0.75;;;;;;;;;;5049507;28;20417;-80
2022/06/11 13:02:55;;;;;;;1.52;0.70;;;;;;;;;;5040495;28;20370;-81
2022/06/11 13:05:21;;;;;;;1.57;0.73;;;;;;;;;;5047169;28;20462;-81
2022/06/11 13:07:50;;;;;;;0.73;0.60;;;;;;;;;;5052297;28;20385;-81
2022/06/11 13:10:16;;;;;;;1.10;0.60;;;;;;;;;;5039639;28;20563;-80
2022/06/11 13:13:03;;;;;;;0.70;0.60;;;;;;;;;;5020644;28;20417;-79
2022/06/11 13:15:36;;;;;;;1.75;0.93;;;;;;;;;;5021094;28;20483;-79
2022/06/11 13:18:05;;;;;;;2.20;0.90;;;;;;;;;;5029483;28;20778;-79
2022/06/11 13:20:38;;;;;;;0.87;0.70;;;;;;;;;;5022951;28;20381;-79
2022/06/11 13:23:10;;;;;;;0.95;0.70;;;;;;;;;;5024053;28;20410;-80
2022/06/11 13:25:41;;;;;;;2.50;0.80;;;;;;;;;;5017412;28;20486;-80
2022/06/11 13:28:13;;;;;;;1.23;0.70;;;;;;;;;;5024956;28;20400;-80
2022/06/11 13:30:47;;;;;;;1.80;0.70;;;;;;;;;;5025278;28;20387;-82
2022/06/11 13:33:32;;;;;;;0.98;0.70;;;;;;;;;;5020819;28;20429;-79
2022/06/11 13:36:01;;;;;;;1.00;0.83;;;;;;;;;;5030150;28;20387;-79
2022/06/11 13:38:45;;;;;;;0.75;0.75;;;;;;;;;;5026415;28;20411;-79
2022/06/11 13:41:34;;;;;;;1.27;0.60;;;;;;;;;;5025563;28;20872;-80
2022/06/11 13:44:00;;;;;;;1.20;0.80;;;;;;;;;;5020820;28;20815;-80
2022/06/11 13:46:47;;;;;;;2.17;0.80;;;;;;;;;;5017446;28;20893;-80
2022/06/11 13:49:16;;;;;;;1.15;0.70;;;;;;;;;;5027820;28;20385;-79
2022/06/11 13:51:49;;;;;;;1.30;0.70;;;;;;;;;;5041060;28;20401;-78
2022/06/11 13:57:33;;;;;;;1.20;0.70;;;;;;;;;;5027406;28;20408;-81
2022/06/11 14:00:17;;;;;;;1.75;0.70;;;;;;;;;;5023134;28;20496;-81
2022/06/11 14:02:43;;;;;;;2.00;0.67;;;;;;;;;;5017120;28;20451;-80
2022/06/11 14:05:26;;;;;;;0.83;0.80;;;;;;;;;;5020483;28;20879;-80
2022/06/11 14:07:53;;;;;;;1.50;0.82;;;;;;;;;;5029960;28;20369;-81
2022/06/11 14:10:24;;;;;;;0.95;0.82;;;;;;;;;;5034735;28;20462;-81
2022/06/11 14:12:56;;;;;;;1.83;0.85;;;;;;;;;;5050372;28;20476;-80
2022/06/11 14:15:36;;;;;;;1.27;0.60;;;;;;;;;;5052514;28;20381;-80
2022/06/11 14:18:05;;;;;;;1.40;0.93;;;;;;;;;;5052380;28;20386;-81
2022/06/11 14:20:31;;;;;;;3.60;3.30;;;;;;;;;;5052703;28;20472;-80
2022/06/11 14:23:02;;;;;;;3.50;2.72;;;;;;;;;;5045795;28;20399;-82
2022/06/11 14:25:35;;;;;;;1.50;0.90;;;;;;;;;;5032565;28;20431;-80
2022/06/11 14:28:16;;;;;;;1.20;0.90;;;;;;;;;;5052379;28;20372;-81
2022/06/11 14:30:45;;;;;;;0.82;0.70;;;;;;;;;;5052369;28;20373;-82
2022/06/11 14:33:11;;;;;;;2.17;1.98;;;;;;;;;;5052151;28;20377;-81
2022/06/11 14:35:50;;;;;;;1.60;0.80;;;;;;;;;;5039415;28;20434;-83
2022/06/11 14:38:25;;;;;;;2.38;1.10;;;;;;;;;;5030424;28;20823;-84
2022/06/11 14:41:19;;;;;;;1.40;0.90;;;;;;;;;;5032861;28;20379;-84
2022/06/11 14:43:51;;;;;;;3.10;1.10;;;;;;;;;;5031870;28;20381;-83
2022/06/11 14:46:29;;;;;;;1.98;0.90;;;;;;;;;;5030752;28;20379;-82
2022/06/11 14:48:58;;;;;;;1.47;1.03;;;;;;;;;;5033442;28;20396;-83
2022/06/11 14:51:26;;;;;;;1.92;0.73;;;;;;;;;;5032066;28;20395;-83
2022/06/11 14:54:10;;;;;;;5.23;1.00;;;;;;;;;;5034316;28;20516;-82
2022/06/11 14:56:36;;;;;;;1.17;0.75;;;;;;;;;;5052052;28;20744;-82
2022/06/11 14:59:29;;;;;;;1.90;0.82;;;;;;;;;;5052082;28;20485;-82
2022/06/11 15:01:55;;;;;;;1.33;0.80;;;;;;;;;;5051946;28;20392;-82
2022/06/11 15:04:36;;;;;;;6.07;5.45;;;;;;;;;;5051972;28;20445;-81
2022/06/11 15:07:14;;;;;;;19.08;3.38;;;;;;;;;;5040870;28;20383;-80
2022/06/11 15:09:53;;;;;;;53.43;6.63;;;;;;;;;;5017526;28;20462;-80